Time,TemperatureF,DewpointF,PressureIn,WindDirection,WindDirectionDegrees,WindSpeedMPH,WindSpeedGustMPH,Humidity,HourlyPrecipIn,Conditions,Clouds,dailyrainin,SoftwareType,DateUTC
2013-01-14 00:02:00,-999.0,-99.9,-100.00,North,354,3.0,-999.0,-999,-99.99,,,-99.99,,2013-01-14 08:02:00,
2013-01-14 00:12:00,31.0,1.0,-100.00,North,-999,2.0,-999.0,27,-99.99,,,0.00,,2013-01-14 08:12:00,
2013-01-14 00:22:00,31.0,1.0,-100.00,North,-999,2.0,-999.0,27,-99.99,,,0.00,,2013-01-14 08:22:00,
2013-01-14 00:33:00,-999.0,-99.9,-100.00,North,0,3.0,-999.0,-999,-99.99,,,-99.99,,2013-01-14 08:33:00,
2013-01-14 00:43:00,-999.0,-99.9,-100.00,North,354,3.0,-999.0,-999,-99.99,,,-99.99,,2013-01-14 08:43:00,
2013-01-14 00:53:00,-999.0,-99.9,-100.00,NNW,343,6.0,-999.0,-999,-99.99,,,-99.99,,2013-01-14 08:53:00,
2013-01-14 01:03:00,-999.0,-99.9,-100.00,NNW,343,7.0,-999.0,-999,-99.99,,,-99.99,,2013-01-14 09:03:00,
2013-01-14 01:12:00,-999.0,-99.9,-100.00,NNW,348,5.0,-999.0,-999,-99.99,,,-99.99,,2013-01-14 09:12:00,
2013-01-14 01:23:00,-999.0,-99.9,-100.00,NNW,348,5.0,-999.0,-999,-99.99,,,-99.99,,2013-01-14 09:23:00,
2013-01-14 01:34:00,-999.0,-99.9,-100.00,North,354,2.0,-999.0,-999,-99.99,,,-99.99,,2013-01-14 09:34:00,
2013-01-14 01:43:00,-999.0,-99.9,-100.00,North,354,2.0,-999.0,-999,-99.99,,,-99.99,,2013-01-14 09:43:00,
2013-01-14 01:53:00,-999.0,-99.9,-100.00,NNW,331,2.0,-999.0,-999,-99.99,,,-99.99,,2013-01-14 09:53:00,
2013-01-14 02:03:00,-999.0,-99.9,-100.00,NW,326,5.0,-999.0,-999,-99.99,,,-99.99,,2013-01-14 10:03:00,
2013-01-14 02:12:00,-999.0,-99.9,-100.00,North,-999,2.0,-999.0,-999,-99.99,,,-99.99,,2013-01-14 10:12:00,
2013-01-14 02:23:00,-999.0,-99.9,-100.00,NNW,343,2.0,-999.0,-999,-99.99,,,-99.99,,2013-01-14 10:23:00,
2013-01-14 02:33:00,-999.0,-99.9,-100.00,NNW,343,2.0,-999.0,-999,-99.99,,,-99.99,,2013-01-14 10:33:00,
2013-01-14 02:43:00,-999.0,-99.9,-100.00,NNW,343,2.0,-999.0,-999,-99.99,,,-99.99,,2013-01-14 10:43:00,
2013-01-14 02:53:00,-999.0,-99.9,-100.00,NNW,343,2.0,-999.0,-999,-99.99,,,-99.99,,2013-01-14 10:53:00,
2013-01-14 03:12:00,-999.0,-99.9,-100.00,North,-999,1.0,-999.0,-999,-99.99,,,-99.99,,2013-01-14 11:12:00,
2013-01-14 03:23:00,-999.0,-99.9,-100.00,North,-999,1.0,-999.0,-999,-99.99,,,-99.99,,2013-01-14 11:23:00,
2013-01-14 03:33:00,-999.0,-99.9,-100.00,North,-999,1.0,-999.0,-999,-99.99,,,-99.99,,2013-01-14 11:33:00,
2013-01-14 05:34:00,-999.0,-99.9,-100.00,North,5,0.0,-999.0,-999,-99.99,,,-99.99,,2013-01-14 13:34:00,
2013-01-14 05:43:00,-999.0,-99.9,-100.00,North,5,0.0,-999.0,-999,-99.99,,,-99.99,,2013-01-14 13:43:00,
2013-01-14 05:53:00,25.0,-99.9,-100.00,North,-999,-999.0,-999.0,-999,-99.99,,,-99.99,,2013-01-14 13:53:00,
2013-01-14 06:03:00,-999.0,-99.9,-100.00,NNW,337,2.0,-999.0,-999,-99.99,,,-99.99,,2013-01-14 14:03:00,
2013-01-14 06:13:00,-999.0,-99.9,-100.00,NNW,331,5.0,-999.0,-999,-99.99,,,-99.99,,2013-01-14 14:13:00,
2013-01-14 06:23:00,-999.0,-99.9,-100.00,NNW,331,5.0,-999.0,-999,-99.99,,,-99.99,,2013-01-14 14:23:00,
2013-01-14 06:33:00,-999.0,-99.9,-100.00,NW,320,7.0,-999.0,-999,-99.99,,,-99.99,,2013-01-14 14:33:00,
2013-01-14 06:43:00,-999.0,-99.9,-100.00,NNW,331,6.0,-999.0,-999,-99.99,,,-99.99,,2013-01-14 14:43:00,
2013-01-14 06:53:00,-999.0,-99.9,-100.00,NNW,331,6.0,-999.0,-999,-99.99,,,-99.99,,2013-01-14 14:53:00,
2013-01-14 07:04:00,-999.0,-99.9,-100.00,NW,309,4.0,-999.0,-999,-99.99,,,-99.99,,2013-01-14 15:04:00,
2013-01-14 07:12:00,-999.0,-99.9,-100.00,NW,320,5.0,-999.0,-999,-99.99,,,-99.99,,2013-01-14 15:12:00,
2013-01-14 07:24:00,-999.0,-99.9,-100.00,NW,309,5.0,-999.0,-999,-99.99,,,-99.99,,2013-01-14 15:24:00,
2013-01-14 07:34:00,-999.0,-99.9,-100.00,NNW,337,6.0,-999.0,-999,-99.99,,,-99.99,,2013-01-14 15:34:00,
2013-01-14 07:43:00,-999.0,-99.9,-100.00,NNW,331,4.0,-999.0,-999,-99.99,,,-99.99,,2013-01-14 15:43:00,
2013-01-14 07:54:00,-999.0,-99.9,-100.00,NNW,331,4.0,-999.0,-999,-99.99,,,-99.99,,2013-01-14 15:54:00,
2013-01-14 08:03:00,-999.0,-99.9,-100.00,NNW,331,4.0,-999.0,-999,-99.99,,,-99.99,,2013-01-14 16:03:00,
2013-01-14 08:13:00,-999.0,-99.9,-100.00,North,-999,1.0,-999.0,-999,-99.99,,,-99.99,,2013-01-14 16:13:00,
2013-01-14 08:23:00,-999.0,-99.9,-100.00,North,-999,1.0,-999.0,-999,-99.99,,,-99.99,,2013-01-14 16:23:00,
2013-01-14 08:33:00,-999.0,-99.9,-100.00,NNW,337,3.0,-999.0,-999,-99.99,,,-99.99,,2013-01-14 16:33:00,
2013-01-14 09:03:00,-999.0,-99.9,-100.00,NW,326,3.0,-999.0,-999,-99.99,,,-99.99,,2013-01-14 17:03:00,
2013-01-14 09:12:00,-999.0,-99.9,-100.00,NNW,343,5.0,-999.0,-999,-99.99,,,-99.99,,2013-01-14 17:12:00,
2013-01-14 09:23:00,-999.0,-99.9,-100.00,NNW,343,5.0,-999.0,-999,-99.99,,,-99.99,,2013-01-14 17:23:00,
2013-01-14 09:34:00,-999.0,-99.9,-100.00,NW,315,3.0,-999.0,-999,-99.99,,,-99.99,,2013-01-14 17:34:00,
2013-01-14 09:44:00,-999.0,-99.9,-100.00,North,354,4.0,-999.0,-999,-99.99,,,-99.99,,2013-01-14 17:44:00,
2013-01-14 09:54:00,-999.0,-99.9,-100.00,North,354,4.0,-999.0,-999,-99.99,,,-99.99,,2013-01-14 17:54:00,
2013-01-14 10:03:00,-999.0,-99.9,-100.00,North,354,6.0,-999.0,-999,-99.99,,,-99.99,,2013-01-14 18:03:00,
2013-01-14 10:14:00,35.0,-99.9,-100.00,North,-999,-999.0,-999.0,-999,-99.99,,,-99.99,,2013-01-14 18:14:00,
2013-01-14 10:23:00,-999.0,-99.9,-100.00,North,354,4.0,-999.0,-999,-99.99,,,-99.99,,2013-01-14 18:23:00,
2013-01-14 10:33:00,-999.0,-99.9,-100.00,North,354,4.0,-999.0,-999,-99.99,,,-99.99,,2013-01-14 18:33:00,
2013-01-14 10:43:00,-999.0,-99.9,-100.00,North,354,5.0,-999.0,-999,-99.99,,,-99.99,,2013-01-14 18:43:00,
2013-01-14 10:53:00,-999.0,-99.9,-100.00,North,354,5.0,-999.0,-999,-99.99,,,-99.99,,2013-01-14 18:53:00,
2013-01-14 11:03:00,-999.0,-99.9,-100.00,North,354,3.0,-999.0,-999,-99.99,,,-99.99,,2013-01-14 19:03:00,
2013-01-14 11:13:00,37.0,-99.9,-100.00,North,-999,-999.0,-999.0,-999,-99.99,,,-99.99,,2013-01-14 19:13:00,
2013-01-14 11:23:00,37.0,-99.9,-100.00,North,-999,-999.0,-999.0,-999,-99.99,,,-99.99,,2013-01-14 19:23:00,
2013-01-14 11:43:00,-999.0,-99.9,-100.00,North,354,6.0,-999.0,-999,-99.99,,,-99.99,,2013-01-14 19:43:00,
2013-01-14 11:53:00,-999.0,-99.9,-100.00,North,354,4.0,-999.0,-999,-99.99,,,-99.99,,2013-01-14 19:53:00,
2013-01-14 12:04:00,-999.0,-99.9,-100.00,NNW,331,5.0,-999.0,-999,-99.99,,,-99.99,,2013-01-14 20:04:00,
2013-01-14 12:13:00,-999.0,-99.9,-100.00,North,5,6.0,-999.0,-999,-99.99,,,-99.99,,2013-01-14 20:13:00,
2013-01-14 12:23:00,-999.0,-99.9,-100.00,North,5,6.0,-999.0,-999,-99.99,,,-99.99,,2013-01-14 20:23:00,
2013-01-14 12:34:00,-999.0,-99.9,-100.00,NNW,348,6.0,-999.0,-999,-99.99,,,-99.99,,2013-01-14 20:34:00,
2013-01-14 12:43:00,-999.0,-99.9,-100.00,NE,39,5.0,-999.0,0,-99.99,,,-99.99,,2013-01-14 20:43:00,
2013-01-14 12:53:00,-999.0,-99.9,-100.00,North,0,6.0,-999.0,-999,-99.99,,,-99.99,,2013-01-14 20:53:00,
2013-01-14 13:03:00,-999.0,-99.9,-100.00,North,0,6.0,-999.0,-999,-99.99,,,-99.99,,2013-01-14 21:03:00,
2013-01-14 13:13:00,-999.0,-99.9,-100.00,North,0,6.0,-999.0,-999,-99.99,,,-99.99,,2013-01-14 21:13:00,
2013-01-14 13:23:00,-999.0,-99.9,-100.00,North,-999,3.0,-999.0,-999,-99.99,,,-99.99,,2013-01-14 21:23:00,
2013-01-14 13:33:00,-999.0,-99.9,-100.00,North,-999,3.0,-999.0,-999,-99.99,,,-99.99,,2013-01-14 21:33:00,
2013-01-14 13:43:00,-999.0,-99.9,-100.00,North,0,6.0,-999.0,-999,-99.99,,,-99.99,,2013-01-14 21:43:00,
2013-01-14 13:54:00,-999.0,-99.9,-100.00,North,0,6.0,-999.0,-999,-99.99,,,-99.99,,2013-01-14 21:54:00,
2013-01-14 14:03:00,-999.0,-99.9,-100.00,NNE,28,8.0,-999.0,-999,-99.99,,,-99.99,,2013-01-14 22:03:00,
2013-01-14 14:13:00,-999.0,-99.9,-100.00,North,354,8.0,-999.0,-999,-99.99,,,-99.99,,2013-01-14 22:13:00,
2013-01-14 14:23:00,-999.0,-99.9,-100.00,NNE,28,6.0,-999.0,-999,-99.99,,,-99.99,,2013-01-14 22:23:00,
2013-01-14 14:33:00,-999.0,-99.9,-100.00,NNE,16,6.0,-999.0,-999,-99.99,,,-99.99,,2013-01-14 22:33:00,
2013-01-14 14:43:00,-999.0,-99.9,-100.00,NNW,337,7.0,-999.0,-999,-99.99,,,-99.99,,2013-01-14 22:43:00,
2013-01-14 14:53:00,-999.0,-99.9,-100.00,NNW,337,7.0,-999.0,-999,-99.99,,,-99.99,,2013-01-14 22:53:00,
2013-01-14 15:03:00,-999.0,-99.9,-100.00,North,354,6.0,-999.0,-999,-99.99,,,-99.99,,2013-01-14 23:03:00,
2013-01-14 15:12:00,-999.0,-99.9,-100.00,North,0,8.0,-999.0,-999,-99.99,,,-99.99,,2013-01-14 23:12:00,
2013-01-14 15:23:00,-999.0,-99.9,-100.00,North,354,7.0,-999.0,-999,-99.99,,,-99.99,,2013-01-14 23:23:00,
2013-01-14 15:33:00,-999.0,-99.9,-100.00,North,354,7.0,-999.0,-999,-99.99,,,-99.99,,2013-01-14 23:33:00,
2013-01-14 15:43:00,-999.0,-99.9,-100.00,North,354,5.0,-999.0,-999,-99.99,,,-99.99,,2013-01-14 23:43:00,
2013-01-14 15:53:00,-999.0,-99.9,-100.00,North,354,5.0,-999.0,-999,-99.99,,,-99.99,,2013-01-14 23:53:00,
2013-01-14 16:03:00,-999.0,-99.9,-100.00,North,5,6.0,-999.0,-999,-99.99,,,-99.99,,2013-01-15 00:03:00,
2013-01-14 16:12:00,-999.0,-99.9,-100.00,NNE,22,6.0,-999.0,-999,-99.99,,,-99.99,,2013-01-15 00:12:00,
2013-01-14 16:23:00,-999.0,-99.9,-100.00,NNE,22,6.0,-999.0,-999,-99.99,,,-99.99,,2013-01-15 00:23:00,
2013-01-14 16:33:00,-999.0,-99.9,-100.00,North,354,4.0,-999.0,-999,-99.99,,,-99.99,,2013-01-15 00:33:00,
2013-01-14 16:43:00,39.0,-99.9,-100.00,North,-999,-999.0,-999.0,-999,-99.99,,,-99.99,,2013-01-15 00:43:00,
2013-01-14 16:53:00,-999.0,-99.9,-100.00,NNW,343,4.0,-999.0,-999,-99.99,,,-99.99,,2013-01-15 00:53:00,
2013-01-14 17:02:00,-999.0,-99.9,-100.00,NNW,343,4.0,-999.0,-999,-99.99,,,-99.99,,2013-01-15 01:02:00,
2013-01-14 17:12:00,-999.0,-99.9,-100.00,NNW,343,4.0,-999.0,-999,-99.99,,,-99.99,,2013-01-15 01:12:00,
2013-01-14 17:23:00,-999.0,-99.9,-100.00,NNW,343,4.0,-999.0,-999,-99.99,,,-99.99,,2013-01-15 01:23:00,
2013-01-14 17:33:00,-999.0,-99.9,-100.00,NNW,343,4.0,-999.0,-999,-99.99,,,-99.99,,2013-01-15 01:33:00,
2013-01-14 18:03:00,35.0,-99.9,-100.00,North,-999,-999.0,-999.0,-999,-99.99,,,-99.99,,2013-01-15 02:03:00,
2013-01-14 18:12:00,34.0,-2.0,-100.00,North,-999,-999.0,-999.0,20,-99.99,,,-99.99,,2013-01-15 02:12:00,
2013-01-14 18:22:00,34.0,-2.0,-100.00,North,-999,-999.0,-999.0,20,-99.99,,,-99.99,,2013-01-15 02:22:00,
2013-01-14 18:32:00,34.0,-2.0,-100.00,North,-999,-999.0,-999.0,20,-99.99,,,-99.99,,2013-01-15 02:32:00,
2013-01-14 18:43:00,-999.0,-99.9,-100.00,NNE,28,0.0,-999.0,-999,-99.99,,,-99.99,,2013-01-15 02:43:00,
2013-01-14 18:53:00,-999.0,-99.9,-100.00,NNE,28,0.0,-999.0,-999,-99.99,,,-99.99,,2013-01-15 02:53:00,
2013-01-14 19:03:00,-999.0,-99.9,-100.00,NE,50,2.0,-999.0,-999,-99.99,,,-99.99,,2013-01-15 03:03:00,
2013-01-14 19:12:00,-999.0,-99.9,-100.00,NNE,28,4.0,-999.0,-999,-99.99,,,-99.99,,2013-01-15 03:12:00,
2013-01-14 19:22:00,-999.0,-99.9,-100.00,NNE,28,4.0,-999.0,-999,-99.99,,,-99.99,,2013-01-15 03:22:00,
2013-01-14 19:33:00,-999.0,-99.9,-100.00,North,11,3.0,-999.0,-999,-99.99,,,-99.99,,2013-01-15 03:33:00,
2013-01-14 19:43:00,-999.0,-99.9,-100.00,North,11,3.0,-999.0,-999,-99.99,,,-99.99,,2013-01-15 03:43:00,
2013-01-14 19:53:00,-999.0,-99.9,-100.00,North,11,3.0,-999.0,-999,-99.99,,,-99.99,,2013-01-15 03:53:00,
2013-01-14 20:03:00,-999.0,-99.9,-100.00,North,11,3.0,-999.0,-999,-99.99,,,-99.99,,2013-01-15 04:03:00,
2013-01-14 20:13:00,-999.0,-99.9,-100.00,North,-999,1.0,-999.0,-999,-99.99,,,-99.99,,2013-01-15 04:13:00,
2013-01-14 20:22:00,-999.0,-99.9,-100.00,North,-999,1.0,-999.0,-999,-99.99,,,-99.99,,2013-01-15 04:22:00,
2013-01-14 20:33:00,-999.0,-99.9,-100.00,North,-999,1.0,-999.0,-999,-99.99,,,-99.99,,2013-01-15 04:33:00,
2013-01-14 21:12:00,30.0,1.0,-100.00,North,-999,1.0,-999.0,28,-99.99,,,-99.99,,2013-01-15 05:12:00,
2013-01-14 21:22:00,30.0,1.0,-100.00,North,-999,1.0,-999.0,28,-99.99,,,-99.99,,2013-01-15 05:22:00,
2013-01-14 21:33:00,30.0,1.0,-100.00,North,-999,1.0,-999.0,28,-99.99,,,-99.99,,2013-01-15 05:33:00,
2013-01-14 21:42:00,30.0,1.0,-100.00,North,-999,1.0,-999.0,28,-99.99,,,-99.99,,2013-01-15 05:42:00,
2013-01-14 22:43:00,-999.0,-99.9,-100.00,North,11,0.0,-999.0,-999,-99.99,,,-99.99,,2013-01-15 06:43:00,
2013-01-14 22:53:00,-999.0,-99.9,-100.00,North,11,0.0,-999.0,-999,-99.99,,,-99.99,,2013-01-15 06:53:00,
2013-01-14 23:02:00,-999.0,-99.9,-100.00,North,11,0.0,-999.0,-999,-99.99,,,-99.99,,2013-01-15 07:02:00,
2013-01-14 23:12:00,28.0,-99.9,-100.00,North,-999,-999.0,-999.0,-999,-99.99,,,-99.99,,2013-01-15 07:12:00,
2013-01-14 23:22:00,28.0,-99.9,-100.00,North,-999,-999.0,-999.0,-999,-99.99,,,-99.99,,2013-01-15 07:22:00,